Time;durP1;ratioP1;P1;durP2;ratioP2;P2;SDS_P1;SDS_P2;PMS_P1;PMS_P2;Temp;Humidity;BMP_temperature;BMP_pressure;BME280_temperature;BME280_humidity;BME280_pressure;Samples;Min_cycle;Max_cycle;Signal;HPM_P1;HPM_P2
2021/11/19 00:00:49;;;;;;;9.07;6.97;;;3.00;82.10;;;;;;5071570;28;20210;-66
2021/11/19 00:03:23;;;;;;;10.10;7.15;;;3.00;81.80;;;;;;5072716;28;20236;-67
2021/11/19 00:05:50;;;;;;;10.80;7.93;;;3.00;81.50;;;;;;5074075;28;20238;-65
2021/11/19 00:08:27;;;;;;;10.52;7.80;;;3.00;81.50;;;;;;5073424;28;20225;-66
2021/11/19 00:10:56;;;;;;;9.18;7.10;;;3.00;81.40;;;;;;5072856;28;22185;-66
2021/11/19 00:13:28;;;;;;;9.20;7.07;;;2.90;81.20;;;;;;5073716;28;20316;-65
2021/11/19 00:15:55;;;;;;;10.63;6.70;;;2.90;80.50;;;;;;5072991;28;20205;-65
2021/11/19 00:18:24;;;;;;;9.57;6.45;;;2.90;80.40;;;;;;5073546;28;20229;-66
2021/11/19 00:20:52;;;;;;;12.15;8.07;;;2.80;78.70;;;;;;5073544;28;20277;-65
2021/11/19 00:23:21;;;;;;;11.10;7.88;;;2.80;79.10;;;;;;5073521;28;20602;-66
2021/11/19 00:25:48;;;;;;;8.98;6.40;;;2.80;79.50;;;;;;5073352;28;20309;-66
2021/11/19 00:28:17;;;;;;;7.43;6.00;;;2.80;80.40;;;;;;5073889;28;20225;-66
2021/11/19 00:30:50;;;;;;;15.23;7.13;;;2.80;81.40;;;;;;5072886;28;20225;-66
2021/11/19 00:33:20;;;;;;;9.77;6.50;;;2.80;83.30;;;;;;5073769;28;20198;-66
2021/11/19 00:35:51;;;;;;;7.72;6.05;;;2.80;84.00;;;;;;5071010;28;20245;-66
2021/11/19 00:38:20;;;;;;;8.25;5.97;;;2.80;84.60;;;;;;5073709;28;20285;-65
2021/11/19 00:40:54;;;;;;;7.38;5.60;;;2.80;84.50;;;;;;5073067;28;20614;-66
2021/11/19 00:43:22;;;;;;;7.22;5.82;;;2.80;84.50;;;;;;5072615;28;20680;-65
2021/11/19 00:45:51;;;;;;;8.35;5.43;;;2.80;84.50;;;;;;5072223;28;20194;-66
2021/11/19 00:48:22;;;;;;;6.60;5.25;;;2.80;84.20;;;;;;5073349;28;20283;-65
2021/11/19 00:50:54;;;;;;;7.65;5.45;;;2.80;84.30;;;;;;5072815;28;20222;-65
2021/11/19 00:53:27;;;;;;;6.65;5.07;;;2.80;84.60;;;;;;5072821;28;20327;-66
2021/11/19 00:55:54;;;;;;;5.10;4.25;;;2.80;84.90;;;;;;5072680;28;20630;-66
2021/11/19 00:58:22;;;;;;;7.95;5.80;;;2.90;85.20;;;;;;5073023;28;20217;-66
2021/11/19 01:01:01;;;;;;;7.65;5.47;;;2.90;85.20;;;;;;5072609;28;20194;-66
2021/11/19 01:03:30;;;;;;;5.80;5.13;;;3.00;85.00;;;;;;5073044;28;21051;-66
2021/11/19 01:06:00;;;;;;;7.68;4.90;;;3.00;85.40;;;;;;5072740;28;20708;-66
2021/11/19 01:08:28;;;;;;;7.32;4.85;;;3.00;85.40;;;;;;5072983;28;20213;-65
2021/11/19 01:10:58;;;;;;;8.90;5.90;;;3.00;84.60;;;;;;5072761;28;20244;-65
2021/11/19 01:13:26;;;;;;;9.63;6.38;;;3.00;82.50;;;;;;5072597;28;20256;-66
2021/11/19 01:15:55;;;;;;;9.10;6.82;;;3.00;82.00;;;;;;5071886;28;20190;-66
2021/11/19 01:18:26;;;;;;;9.00;6.55;;;2.90;82.40;;;;;;5072738;28;20202;-66
2021/11/19 01:20:56;;;;;;;11.48;7.13;;;2.90;82.40;;;;;;5072672;28;20656;-65
2021/11/19 01:23:27;;;;;;;10.90;7.25;;;2.90;82.40;;;;;;5072011;28;20198;-66
2021/11/19 01:25:58;;;;;;;9.15;6.70;;;2.90;82.30;;;;;;5072232;28;20198;-66
2021/11/19 01:28:26;;;;;;;11.20;6.20;;;2.90;82.10;;;;;;5072623;28;20202;-66
2021/11/19 01:31:00;;;;;;;9.48;7.30;;;2.80;82.00;;;;;;5072149;28;20641;-66
2021/11/19 01:33:28;;;;;;;11.65;7.72;;;2.70;81.10;;;;;;5072230;28;20255;-65
2021/11/19 01:35:55;;;;;;;8.18;5.80;;;2.60;81.30;;;;;;5071145;28;20217;-65
2021/11/19 01:38:22;;;;;;;8.88;5.57;;;2.70;81.40;;;;;;5072190;28;20248;-65
2021/11/19 01:40:55;;;;;;;5.50;4.68;;;2.60;79.80;;;;;;5072056;28;20285;-65
2021/11/19 01:43:23;;;;;;;7.88;5.43;;;2.60;79.20;;;;;;5071760;28;20271;-66
2021/11/19 01:45:52;;;;;;;10.57;5.85;;;2.50;79.40;;;;;;5071249;28;20293;-65
2021/11/19 01:48:23;;;;;;;10.27;6.10;;;2.50;79.60;;;;;;5072136;28;20255;-65
2021/11/19 01:50:55;;;;;;;8.30;5.15;;;2.40;79.60;;;;;;5071676;28;20222;-65
2021/11/19 01:53:27;;;;;;;9.82;6.10;;;2.40;79.60;;;;;;5071680;28;20289;-65
2021/11/19 01:56:05;;;;;;;8.43;5.63;;;2.40;80.30;;;;;;5072047;28;20678;-65
2021/11/19 01:58:37;;;;;;;8.73;6.43;;;2.40;80.40;;;;;;5071975;28;20289;-65
2021/11/19 02:01:07;;;;;;;7.88;4.80;;;2.40;80.80;;;;;;5071440;28;20220;-65
2021/11/19 02:03:38;;;;;;;6.28;3.97;;;2.40;81.40;;;;;;5071415;28;20255;-66
2021/11/19 02:06:12;;;;;;;7.13;4.60;;;2.40;81.00;;;;;;5069467;28;20222;-65
2021/11/19 02:08:42;;;;;;;7.55;5.53;;;2.30;80.80;;;;;;5072086;28;20227;-65
2021/11/19 02:11:41;;;;;;;7.20;5.50;;;2.30;81.00;;;;;;5071125;28;20241;-65
2021/11/19 02:14:18;;;;;;;10.05;5.43;;;2.30;81.30;;;;;;5050435;28;20226;-66
2021/11/19 02:16:53;;;;;;;11.13;6.65;;;2.30;81.50;;;;;;5051698;28;20285;-65
2021/11/19 02:19:28;;;;;;;10.20;5.95;;;2.20;80.90;;;;;;5051692;28;20268;-66
2021/11/19 02:21:59;;;;;;;7.75;5.72;;;2.30;81.20;;;;;;5050906;28;21011;-67
2021/11/19 02:24:31;;;;;;;8.70;6.72;;;2.20;81.70;;;;;;5050540;28;20711;-68
2021/11/19 02:27:03;;;;;;;7.80;5.82;;;2.20;82.30;;;;;;5051196;28;20230;-66
2021/11/19 02:30:05;;;;;;;6.25;4.93;;;2.20;82.50;;;;;;5051512;28;20554;-67
2021/11/19 02:35:42;;;;;;;6.38;5.03;;;;;;;;;;5050550;28;20191;-67
2021/11/19 02:38:11;;;;;;;9.13;5.60;;;;;;;;;;5051183;28;20203;-67
2021/11/19 02:40:39;;;;;;;7.80;5.28;;;;;;;;;;5050721;28;20194;-66
2021/11/19 02:43:09;;;;;;;8.63;5.22;;;;;;;;;;5051185;28;20203;-66
2021/11/19 02:45:39;;;;;;;9.75;6.82;;;;;;;;;;5050785;28;20229;-66
2021/11/19 02:48:07;;;;;;;8.35;5.45;;;;;;;;;;5051055;28;20569;-66
2021/11/19 02:50:35;;;;;;;7.30;5.32;;;;;;;;;;5050643;28;20314;-67
2021/11/19 02:53:02;;;;;;;8.00;5.13;;;;;;;;;;5049647;28;20221;-66
2021/11/19 02:55:31;;;;;;;5.68;4.45;;;;;;;;;;5050986;28;20217;-66
2021/11/19 02:57:58;;;;;;;6.25;3.55;;;;;;;;;;5050172;28;20245;-66
2021/11/19 03:00:31;;;;;;;7.07;4.20;;;;;;;;;;5049981;28;20278;-66
2021/11/19 03:02:59;;;;;;;7.88;5.30;;;;;;;;;;5050557;28;20222;-65
2021/11/19 03:05:27;;;;;;;10.35;5.85;;;;;;;;;;5049985;28;20645;-65
2021/11/19 03:07:55;;;;;;;9.50;5.55;;;;;;;;;;5050109;28;20290;-65
2021/11/19 03:10:23;;;;;;;8.57;4.72;;;;;;;;;;5050638;28;20210;-65
2021/11/19 03:13:01;;;;;;;9.13;5.82;;;;;;;;;;5062800;28;20221;-65
2021/11/19 03:15:40;;;;;;;7.60;5.13;;;;;;;;;;5070909;28;20247;-65
2021/11/19 03:18:11;;;;;;;7.80;4.28;;;;;;;;;;5067749;28;20190;-65
2021/11/19 03:20:40;;;;;;;7.53;4.88;;;;;;;;;;5070725;28;20208;-67
2021/11/19 03:23:08;;;;;;;8.40;5.15;;;;;;;;;;5069937;28;20280;-67
2021/11/19 03:25:37;;;;;;;8.73;5.20;;;;;;;;;;5070364;28;20237;-66
2021/11/19 03:28:07;;;;;;;10.80;5.03;;;;;;;;;;5066349;28;20212;-67
2021/11/19 03:30:38;;;;;;;7.97;4.95;;;;;;;;;;5067060;28;20584;-67
2021/11/19 03:33:07;;;;;;;4.75;3.58;;;;;;;;;;5070634;28;20280;-66
2021/11/19 03:35:36;;;;;;;6.78;4.85;;;;;;;;;;5068260;28;20190;-66
2021/11/19 03:38:04;;;;;;;6.07;4.50;;;;;;;;;;5067084;28;20255;-66
2021/11/19 03:40:34;;;;;;;8.85;4.88;;;;;;;;;;5069766;28;20222;-66
2021/11/19 03:43:03;;;;;;;7.40;4.57;;;;;;;;;;5070812;28;20210;-66
2021/11/19 03:45:32;;;;;;;8.18;4.75;;;;;;;;;;5069828;28;20194;-66
2021/11/19 03:48:01;;;;;;;6.20;4.45;;;;;;;;;;5070695;28;20201;-66
2021/11/19 03:50:31;;;;;;;6.32;4.05;;;;;;;;;;5070108;28;20605;-65
2021/11/19 03:52:58;;;;;;;7.43;4.47;;;;;;;;;;5069953;28;20317;-66
2021/11/19 03:55:31;;;;;;;7.00;4.50;;;;;;;;;;5069438;28;20244;-65
2021/11/19 03:57:58;;;;;;;7.80;5.30;;;;;;;;;;5071065;28;20562;-65
2021/11/19 04:00:29;;;;;;;5.55;3.90;;;;;;;;;;5070600;28;20186;-65
2021/11/19 04:02:57;;;;;;;5.05;3.60;;;;;;;;;;5071036;28;20195;-65
2021/11/19 04:05:26;;;;;;;5.38;3.90;;;;;;;;;;5069472;28;20294;-65
2021/11/19 04:07:54;;;;;;;7.65;5.13;;;;;;;;;;5068960;28;20218;-65
2021/11/19 04:10:22;;;;;;;6.38;4.03;;;;;;;;;;5069768;28;20222;-66
2021/11/19 04:12:52;;;;;;;4.90;3.50;;;;;;;;;;5073937;28;20259;-65
2021/11/19 04:15:31;;;;;;;10.23;5.95;;;;;;;;;;5073401;28;20190;-65
2021/11/19 04:17:58;;;;;;;6.07;4.35;;;;;;;;;;5074340;28;20624;-66
2021/11/19 04:20:27;;;;;;;8.07;4.68;;;;;;;;;;5073803;28;20194;-65
2021/11/19 04:22:55;;;;;;;7.15;5.18;;;;;;;;;;5074349;28;20645;-66
2021/11/19 04:25:23;;;;;;;7.05;4.57;;;;;;;;;;5073301;28;20205;-65
2021/11/19 04:27:52;;;;;;;7.43;5.18;;;;;;;;;;5073633;28;20327;-65
2021/11/19 04:30:24;;;;;;;4.43;3.33;;;;;;;;;;5073619;28;20649;-66
2021/11/19 04:32:51;;;;;;;5.80;4.35;;;;;;;;;;5073411;28;20299;-65
2021/11/19 04:35:19;;;;;;;6.80;4.70;;;;;;;;;;5073908;28;20190;-66
2021/11/19 04:37:50;;;;;;;11.00;8.02;;;;;;;;;;5073284;28;20206;-65
2021/11/19 04:40:19;;;;;;;8.50;6.28;;;;;;;;;;5071259;28;20649;-65
2021/11/19 04:42:47;;;;;;;10.93;5.03;;;;;;;;;;5073188;28;20275;-66
2021/11/19 04:45:16;;;;;;;10.15;5.43;;;;;;;;;;5070295;28;20645;-66
2021/11/19 04:47:43;;;;;;;8.20;5.15;;;;;;;;;;5072720;28;20241;-67
2021/11/19 04:50:12;;;;;;;7.55;4.45;;;;;;;;;;5073218;28;20260;-68
2021/11/19 04:52:39;;;;;;;9.30;5.70;;;;;;;;;;5071654;28;20294;-66
2021/11/19 04:55:09;;;;;;;5.30;4.80;;;;;;;;;;5073029;28;20206;-67
2021/11/19 04:57:36;;;;;;;9.15;5.38;;;;;;;;;;5072389;28;20202;-66
2021/11/19 05:00:06;;;;;;;10.73;6.10;;;;;;;;;;5073245;28;21182;-66
2021/11/19 05:02:34;;;;;;;12.38;6.90;;;;;;;;;;5072936;28;20248;-66
2021/11/19 05:05:01;;;;;;;15.77;7.30;;;;;;;;;;5072036;28;20229;-66
2021/11/19 05:07:31;;;;;;;9.57;6.50;;;;;;;;;;5072809;28;20218;-65
2021/11/19 05:09:58;;;;;;;15.40;8.90;;;;;;;;;;5072263;28;20226;-66
2021/11/19 05:12:28;;;;;;;20.50;8.40;;;;;;;;;;5072937;28;20240;-66
2021/11/19 05:14:59;;;;;;;10.25;7.80;;;;;;;;;;5070748;28;20289;-66
2021/11/19 05:17:29;;;;;;;14.10;8.15;;;;;;;;;;5071499;28;20280;-66
2021/11/19 05:19:56;;;;;;;19.00;10.13;;;;;;;;;;5071175;28;20186;-66
2021/11/19 05:22:25;;;;;;;15.23;9.15;;;;;;;;;;5070347;28;20226;-66
2021/11/19 05:24:52;;;;;;;15.75;11.98;;;;;;;;;;5070125;28;20766;-66
2021/11/19 05:27:20;;;;;;;16.85;10.48;;;;;;;;;;5072630;28;20201;-66
2021/11/19 05:29:49;;;;;;;15.70;13.43;;;;;;;;;;5072198;28;20194;-65
2021/11/19 05:32:16;;;;;;;14.65;11.60;;;;;;;;;;5072704;28;20325;-66
2021/11/19 05:35:01;;;;;;;12.23;7.82;;;;;;;;;;5071586;28;20194;-66
2021/11/19 05:37:28;;;;;;;7.25;5.93;;;;;;;;;;5071363;28;20718;-66
2021/11/19 05:39:56;;;;;;;9.00;6.25;;;;;;;;;;5070787;28;20199;-66
2021/11/19 05:42:23;;;;;;;7.25;4.47;;;;;;;;;;5072368;28;20672;-66
2021/11/19 05:44:52;;;;;;;8.55;5.50;;;;;;;;;;5072191;28;20809;-66
2021/11/19 05:47:21;;;;;;;7.55;4.80;;;;;;;;;;5072228;28;20198;-66
2021/11/19 05:49:48;;;;;;;8.45;5.60;;;;;;;;;;5072401;28;20221;-66
2021/11/19 05:52:18;;;;;;;11.95;6.68;;;;;;;;;;5070568;28;20218;-65
2021/11/19 05:54:45;;;;;;;9.10;4.65;;;;;;;;;;5071593;28;20712;-66
2021/11/19 05:57:15;;;;;;;7.60;4.93;;;;;;;;;;5072197;28;20194;-66
2021/11/19 05:59:48;;;;;;;6.97;4.60;;;;;;;;;;5072229;28;20178;-66
2021/11/19 06:02:19;;;;;;;7.18;4.50;;;;;;;;;;5072167;28;20226;-66
2021/11/19 06:04:46;;;;;;;6.70;4.45;;;;;;;;;;5071834;28;20268;-65
2021/11/19 06:07:15;;;;;;;11.30;5.72;;;;;;;;;;5071944;28;20281;-65
2021/11/19 06:10:00;;;;;;;11.75;7.65;;;;;;;;;;5071799;28;20189;-66
2021/11/19 06:12:34;;;;;;;17.77;10.10;;;;;;;;;;5070970;28;20269;-65
2021/11/19 06:15:03;;;;;;;19.33;11.00;;;;;;;;;;5071215;28;20273;-65
2021/11/19 06:17:39;;;;;;;15.32;8.27;;;;;;;;;;5071846;28;20198;-67
2021/11/19 06:20:11;;;;;;;10.88;7.50;;;;;;;;;;5071064;28;20186;-67
2021/11/19 06:22:42;;;;;;;12.05;7.35;;;;;;;;;;5071797;28;20293;-67
2021/11/19 06:25:14;;;;;;;10.05;6.78;;;;;;;;;;5070987;28;20664;-67
2021/11/19 06:27:42;;;;;;;9.82;5.90;;;;;;;;;;5068643;28;20221;-67
2021/11/19 06:30:12;;;;;;;11.77;6.07;;;;;;;;;;5071664;28;20705;-67
2021/11/19 06:32:44;;;;;;;9.20;7.20;;;;;;;;;;5064677;28;20249;-67
2021/11/19 06:35:11;;;;;;;18.00;7.78;;;;;;;;;;5065950;28;20200;-66
2021/11/19 06:37:39;;;;;;;11.57;6.70;;;;;;;;;;5067925;28;20669;-67
2021/11/19 06:40:11;;;;;;;10.02;7.32;;;;;;;;;;5069566;28;20205;-66
2021/11/19 06:42:45;;;;;;;13.30;8.32;;;;;;;;;;5069685;28;20183;-67
2021/11/19 06:45:14;;;;;;;10.30;6.63;;;;;;;;;;5065999;28;20197;-66
2021/11/19 06:47:42;;;;;;;13.40;7.20;;;;;;;;;;5067971;28;20202;-67
2021/11/19 06:50:12;;;;;;;11.77;7.20;;;;;;;;;;5067546;28;20285;-66
2021/11/19 06:52:42;;;;;;;9.00;6.85;;;;;;;;;;5068541;28;20264;-67
2021/11/19 06:55:10;;;;;;;9.95;5.60;;;;;;;;;;5068539;28;20748;-67
2021/11/19 06:57:41;;;;;;;7.50;5.10;;;;;;;;;;5068564;28;20190;-67
2021/11/19 07:00:09;;;;;;;8.45;5.15;;;;;;;;;;5067839;28;20221;-67
2021/11/19 07:02:37;;;;;;;8.45;4.60;;;;;;;;;;5069100;28;20587;-66
2021/11/19 07:05:07;;;;;;;7.22;4.90;;;;;;;;;;5067395;28;20592;-67
2021/11/19 07:07:38;;;;;;;7.90;5.43;;;;;;;;;;5067561;28;20209;-66
2021/11/19 07:10:06;;;;;;;8.00;5.30;;;;;;;;;;5069847;28;20277;-67
2021/11/19 07:12:33;;;;;;;8.25;5.38;;;;;;;;;;5068721;28;20651;-67
2021/11/19 07:15:03;;;;;;;7.07;4.45;;;;;;;;;;5069609;28;20256;-67
2021/11/19 07:17:30;;;;;;;4.88;3.22;;;;;;;;;;5066681;28;20256;-67
2021/11/19 07:19:58;;;;;;;5.85;4.43;;;;;;;;;;5069869;28;20210;-66
2021/11/19 07:22:27;;;;;;;6.00;4.10;;;;;;;;;;5068318;28;20194;-66
2021/11/19 07:24:58;;;;;;;5.35;3.47;;;;;;;;;;5068964;28;20577;-66
2021/11/19 07:27:25;;;;;;;6.70;4.05;;;;;;;;;;5066984;28;20730;-66
2021/11/19 07:29:53;;;;;;;4.85;3.65;;;;;;;;;;5067739;28;20208;-67
2021/11/19 07:32:21;;;;;;;6.28;4.03;;;;;;;;;;5070130;28;20221;-67
2021/11/19 07:34:48;;;;;;;6.35;4.13;;;;;;;;;;5068125;28;20204;-66
2021/11/19 07:37:17;;;;;;;4.72;3.20;;;;;;;;;;5067789;28;20695;-67
2021/11/19 07:39:48;;;;;;;5.90;4.40;;;;;;;;;;5068902;28;20221;-67
2021/11/19 07:42:18;;;;;;;6.68;4.10;;;;;;;;;;5068897;28;20332;-67
2021/11/19 07:44:49;;;;;;;6.60;4.78;;;;;;;;;;5066690;28;20198;-67
2021/11/19 07:47:16;;;;;;;5.70;4.57;;;;;;;;;;5072642;28;20182;-69
2021/11/19 07:49:47;;;;;;;7.03;4.97;;;;;;;;;;5071099;28;20194;-68
2021/11/19 07:52:15;;;;;;;5.88;4.13;;;;;;;;;;5073783;28;20214;-67
2021/11/19 07:54:42;;;;;;;6.20;4.30;;;;;;;;;;5074280;28;20655;-66
2021/11/19 07:57:12;;;;;;;10.45;4.43;;;;;;;;;;5074383;28;20583;-67
2021/11/19 07:59:41;;;;;;;5.20;4.20;;;;;;;;;;5073385;28;20569;-68
2021/11/19 08:02:12;;;;;;;6.93;5.03;;;;;;;;;;5073149;28;20201;-68
2021/11/19 08:04:39;;;;;;;8.55;4.32;;;;;;;;;;5072875;28;20233;-67
2021/11/19 08:07:07;;;;;;;5.15;4.65;;;;;;;;;;5073923;28;20230;-67
2021/11/19 08:09:36;;;;;;;4.75;4.10;;;;;;;;;;5074416;28;20248;-67
2021/11/19 08:12:04;;;;;;;8.88;6.03;;;;;;;;;;5073478;28;20221;-68
2021/11/19 08:14:31;;;;;;;35.85;32.05;;;;;;;;;;5073650;28;20284;-68
2021/11/19 08:17:01;;;;;;;25.88;23.27;;;;;;;;;;5073693;28;20215;-67
2021/11/19 08:19:34;;;;;;;12.40;11.10;;;;;;;;;;5074436;28;20197;-67
2021/11/19 08:22:02;;;;;;;10.75;9.65;;;;;;;;;;5074264;28;20198;-68
2021/11/19 08:24:31;;;;;;;7.05;6.10;;;;;;;;;;5065156;28;20617;-67
2021/11/19 08:27:01;;;;;;;8.98;6.95;;;;;;;;;;5073443;28;20202;-68
2021/11/19 08:29:32;;;;;;;9.80;7.20;;;;;;;;;;5073778;28;20222;-68
2021/11/19 08:32:01;;;;;;;9.18;7.07;;;;;;;;;;5073825;28;20229;-67
2021/11/19 08:34:29;;;;;;;5.95;4.53;;;;;;;;;;5073194;28;20275;-67
2021/11/19 08:36:57;;;;;;;5.68;4.68;;;;;;;;;;5073440;28;20248;-67
2021/11/19 08:39:25;;;;;;;6.30;5.10;;;;;;;;;;5074124;28;20186;-67
2021/11/19 08:41:53;;;;;;;5.95;5.28;;;;;;;;;;5070375;28;20213;-67
2021/11/19 08:44:20;;;;;;;6.25;4.00;;;;;;;;;;5073684;28;20200;-67
2021/11/19 08:46:49;;;;;;;5.57;3.97;;;;;;;;;;5074146;28;20698;-68
2021/11/19 08:49:19;;;;;;;7.78;5.60;;;;;;;;;;5073751;28;20260;-68
2021/11/19 08:51:47;;;;;;;6.80;4.38;;;;;;;;;;5073508;28;20221;-67
2021/11/19 08:54:16;;;;;;;7.35;4.80;;;;;;;;;;5073069;28;20317;-67
2021/11/19 08:56:46;;;;;;;10.10;7.10;;;;;;;;;;5072881;28;20325;-68
2021/11/19 08:59:16;;;;;;;9.15;6.88;;;;;;;;;;5073902;28;20229;-67
2021/11/19 09:01:45;;;;;;;10.80;5.82;;;;;;;;;;5073534;28;20619;-67
2021/11/19 09:04:13;;;;;;;6.38;4.60;;;;;;;;;;5073313;28;20221;-68
2021/11/19 09:06:42;;;;;;;5.78;4.03;;;2.30;82.00;;;;;;5073636;28;20592;-68
2021/11/19 09:09:10;;;;;;;5.80;4.70;;;10.20;57.00;;;;;;5073126;28;20229;-67
2021/11/19 09:11:37;;;;;;;5.20;4.00;;;10.00;57.50;;;;;;5073231;28;20236;-68
2021/11/19 09:14:05;;;;;;;5.15;3.58;;;10.30;59.40;;;;;;5073079;28;20261;-68
2021/11/19 09:16:34;;;;;;;8.88;4.00;;;;;;;;;;5071507;28;20395;-68
2021/11/19 09:19:09;;;;;;;7.13;4.40;;;;;;;;;;5071244;28;20198;-68
2021/11/19 09:21:37;;;;;;;5.53;4.40;;;;;;;;;;5071897;28;20700;-68
2021/11/19 09:24:07;;;;;;;14.15;10.15;;;;;;;;;;5072778;28;20278;-68
2021/11/19 09:26:37;;;;;;;16.65;11.80;;;;;;;;;;5071255;28;20218;-69
2021/11/19 09:29:06;;;;;;;35.00;24.07;;;;;;;;;;5071253;28;20186;-68
2021/11/19 09:31:37;;;;;;;137.03;92.33;;;;;;;;;;5071056;28;20437;-69
2021/11/19 09:34:04;;;;;;;25.43;21.50;;;;;;;;;;5070698;28;20548;-68
2021/11/19 09:36:34;;;;;;;10.93;9.27;;;10.80;58.30;;;;;;5072686;28;20459;-69
2021/11/19 09:39:01;;;;;;;9.70;6.17;;;16.70;49.50;;;;;;5072934;28;20853;-69
2021/11/19 09:41:44;;;;;;;4.43;2.90;;;17.20;46.30;;;;;;5073218;28;20464;-68
2021/11/19 09:44:40;;;;;;;6.73;6.10;;;17.50;44.30;;;;;;5071311;28;20511;-69
2021/11/19 09:47:30;;;;;;;5.07;4.03;;;17.90;43.40;;;;;;5073126;28;20465;-67
2021/11/19 09:50:38;;;;;;;6.13;4.27;;;18.20;44.00;;;;;;5071643;28;20515;-68
2021/11/19 09:53:41;;;;;;;10.40;7.50;;;18.40;43.90;;;;;;4998777;28;20480;-68
2021/11/19 09:56:27;;;;;;;7.00;5.17;;;18.70;43.10;;;;;;5009383;28;21537;-68
2021/11/19 09:59:02;;;;;;;4.97;3.83;;;18.70;41.10;;;;;;5070654;28;20447;-68
2021/11/19 10:02:09;;;;;;;4.63;3.47;;;18.70;41.70;;;;;;5072710;28;20463;-68
2021/11/19 10:04:56;;;;;;;4.53;2.73;;;18.70;40.40;;;;;;5071982;28;20942;-68
2021/11/19 10:07:32;;;;;;;3.87;3.37;;;18.60;40.60;;;;;;5032977;28;20798;-68
2021/11/19 10:10:31;;;;;;;4.50;2.83;;;18.80;41.30;;;;;;5071997;28;20454;-68
2021/11/19 10:13:04;;;;;;;6.23;4.70;;;19.10;40.70;;;;;;5070019;28;20487;-68
2021/11/19 10:15:45;;;;;;;4.70;3.60;;;19.00;40.50;;;;;;5072196;28;20436;-68
2021/11/19 10:18:18;;;;;;;5.73;2.73;;;18.80;40.10;;;;;;5072677;28;20887;-68
2021/11/19 10:20:49;;;;;;;3.17;2.40;;;18.70;39.50;;;;;;5071758;28;20436;-68
2021/11/19 10:23:20;;;;;;;6.43;3.00;;;18.50;40.00;;;;;;5071782;28;20444;-68
2021/11/19 10:25:53;;;;;;;5.50;2.43;;;18.40;39.50;;;;;;5071908;28;20498;-68
2021/11/19 10:28:37;;;;;;;3.60;2.33;;;18.40;40.00;;;;;;5072188;28;20828;-68
2021/11/19 10:31:07;;;;;;;3.80;2.67;;;18.60;39.70;;;;;;5072087;28;20499;-68
2021/11/19 10:33:40;;;;;;;4.30;2.60;;;18.70;39.50;;;;;;5072083;28;20480;-68
2021/11/19 10:36:17;;;;;;;7.03;3.27;;;18.50;39.00;;;;;;5071267;28;20516;-68
2021/11/19 10:39:21;;;;;;;4.60;4.03;;;18.20;39.10;;;;;;5071975;28;20432;-67
2021/11/19 10:42:21;;;;;;;5.77;4.73;;;17.90;39.70;;;;;;5009777;28;20442;-67
2021/11/19 10:45:29;;;;;;;9.20;4.47;;;17.50;40.00;;;;;;5071794;28;20421;-68
2021/11/19 10:48:51;;;;;;;4.27;3.50;;;17.00;40.60;;;;;;5068974;28;20428;-67
2021/11/19 10:51:57;;;;;;;4.90;3.50;;;16.80;42.30;;;;;;5009645;28;20887;-67
2021/11/19 10:54:52;;;;;;;3.73;2.90;;;16.60;43.10;;;;;;5009269;28;20537;-67
2021/11/19 10:57:53;;;;;;;4.30;3.13;;;16.50;43.00;;;;;;5009684;28;20954;-67
2021/11/19 11:00:33;;;;;;;4.80;3.67;;;16.50;42.30;;;;;;5027449;28;20437;-67
2021/11/19 11:03:09;;;;;;;5.27;3.00;;;16.60;43.10;;;;;;5069260;28;20443;-67
2021/11/19 11:05:39;;;;;;;6.87;4.90;;;16.70;42.80;;;;;;5071227;28;20539;-68
2021/11/19 11:08:14;;;;;;;4.13;2.60;;;16.70;41.70;;;;;;5071718;28;20498;-68
2021/11/19 11:10:52;;;;;;;5.30;2.03;;;16.70;41.20;;;;;;5071558;28;20545;-66
2021/11/19 11:13:31;;;;;;;2.73;1.93;;;16.60;39.30;;;;;;5070908;28;20538;-66
2021/11/19 11:16:01;;;;;;;4.57;2.20;;;16.50;40.20;;;;;;5072362;28;20460;-68
2021/11/19 11:18:31;;;;;;;6.80;3.00;;;16.30;41.20;;;;;;5068459;28;20507;-68
2021/11/19 11:21:18;;;;;;;3.10;2.67;;;16.00;40.50;;;;;;5067821;28;20468;-68
2021/11/19 11:24:08;;;;;;;3.10;2.00;;;15.70;40.90;;;;;;5070233;28;20440;-67
2021/11/19 11:26:46;;;;;;;4.80;2.50;;;15.40;41.00;;;;;;5069630;28;20428;-68
2021/11/19 11:29:40;;;;;;;6.57;3.53;;;15.10;42.00;;;;;;5071690;28;20443;-68
2021/11/19 11:32:26;;;;;;;7.83;2.80;;;14.80;42.40;;;;;;5068022;28;20436;-68
2021/11/19 11:35:17;;;;;;;4.03;2.70;;;14.60;43.00;;;;;;5070779;28;20579;-67
2021/11/19 11:37:56;;;;;;;4.63;2.23;;;14.30;42.80;;;;;;5070315;28;20436;-67
2021/11/19 11:40:28;;;;;;;2.93;1.83;;;14.10;42.90;;;;;;5071624;28;20448;-67
2021/11/19 11:43:16;;;;;;;3.47;1.97;;;14.20;43.30;;;;;;5071761;28;20829;-68
2021/11/19 11:45:45;;;;;;;3.33;2.17;;;14.40;44.60;;;;;;5070852;28;20456;-68
2021/11/19 11:48:27;;;;;;;3.50;2.10;;;14.60;44.70;;;;;;5071311;28;20499;-68
2021/11/19 11:51:01;;;;;;;5.63;2.70;;;14.60;44.30;;;;;;5069942;28;20516;-67
2021/11/19 11:53:44;;;;;;;3.97;2.13;;;14.60;44.00;;;;;;5071167;28;20574;-68
2021/11/19 11:56:24;;;;;;;3.70;2.60;;;14.70;44.30;;;;;;5071325;28;20845;-68
2021/11/19 11:59:01;;;;;;;4.10;2.70;;;15.00;44.30;;;;;;5071142;28;20980;-67
2021/11/19 12:01:44;;;;;;;3.63;3.33;;;15.20;44.30;;;;;;5071154;28;20843;-67
2021/11/19 12:04:19;;;;;;;3.10;1.90;;;15.40;44.30;;;;;;5070402;28;20516;-68
2021/11/19 12:06:52;;;;;;;5.77;1.90;;;15.50;43.10;;;;;;5071019;28;20463;-67
2021/11/19 12:09:29;;;;;;;3.57;2.87;;;15.60;41.90;;;;;;5070743;28;20958;-68
2021/11/19 12:12:33;;;;;;;4.20;2.77;;;15.60;42.20;;;;;;5070584;28;20843;-68
2021/11/19 12:15:12;;;;;;;3.70;2.33;;;15.80;41.60;;;;;;5069960;28;20476;-67
2021/11/19 12:17:50;;;;;;;4.57;2.60;;;16.00;40.50;;;;;;5070833;28;20843;-69
2021/11/19 12:20:25;;;;;;;4.00;2.93;;;15.90;39.90;;;;;;5070931;28;20430;-67
2021/11/19 12:22:55;;;;;;;4.10;3.13;;;;;;;;;;5070640;28;20432;-67
2021/11/19 12:25:40;;;;;;;4.80;2.67;;;;;;;;;;5070545;28;20464;-68
2021/11/19 12:28:09;;;;;;;3.60;2.27;;;;;;;;;;5070591;28;20440;-67
2021/11/19 12:30:39;;;;;;;4.93;2.43;;;;;;;;;;5070767;28;20456;-68
2021/11/19 12:33:09;;;;;;;5.90;2.60;;;;;;;;;;5073055;28;20464;-68
2021/11/19 12:35:39;;;;;;;2.60;1.70;;;;;;;;;;5074078;28;20487;-68
2021/11/19 12:38:07;;;;;;;3.17;2.33;;;;;;;;;;5074126;28;20535;-68
2021/11/19 12:40:41;;;;;;;3.07;2.20;;;;;;;;;;5074118;28;20432;-68
2021/11/19 12:43:17;;;;;;;3.83;2.57;;;;;;;;;;5073783;28;20653;-68
2021/11/19 12:45:46;;;;;;;4.17;2.30;;;;;;;;;;5074026;28;20933;-68
2021/11/19 12:48:31;;;;;;;3.23;2.23;;;;;;;;;;5072888;28;20460;-68
2021/11/19 12:51:01;;;;;;;3.70;2.57;;;;;;;;;;5072242;28;20779;-67
2021/11/19 12:53:54;;;;;;;4.30;2.63;;;;;;;;;;5072808;28;20919;-67
2021/11/19 12:56:25;;;;;;;5.17;2.87;;;;;;;;;;5074402;28;20483;-67
2021/11/19 12:59:11;;;;;;;5.57;3.50;;;;;;;;;;5074860;28;20963;-67
2021/11/19 13:01:41;;;;;;;10.60;4.43;;;;;;;;;;5074782;28;20770;-68
2021/11/19 13:04:30;;;;;;;7.70;4.57;;;;;;;;;;5074369;28;20470;-68
2021/11/19 13:07:06;;;;;;;6.77;4.10;;;;;;;;;;5074797;28;20424;-68
2021/11/19 13:10:00;;;;;;;8.10;4.50;;;;;;;;;;5075102;28;20439;-68
2021/11/19 13:12:31;;;;;;;8.60;4.07;;;;;;;;;;5038678;28;20511;-67
2021/11/19 13:15:17;;;;;;;5.07;3.77;;;;;;;;;;5074855;28;20625;-67
2021/11/19 13:18:01;;;;;;;5.40;4.53;;;;;;;;;;5074280;28;20429;-67
2021/11/19 13:20:36;;;;;;;6.50;4.63;;;;;;;;;;5074978;28;20836;-67
2021/11/19 13:23:30;;;;;;;6.93;4.00;;;;;;;;;;5074913;28;20467;-67
2021/11/19 13:25:58;;;;;;;3.37;2.10;;;;;;;;;;5074977;28;20877;-67
2021/11/19 13:28:44;;;;;;;4.40;3.13;;;;;;;;;;5074464;28;20425;-67
2021/11/19 13:31:29;;;;;;;5.70;3.20;;;;;;;;;;5074348;28;20432;-67
2021/11/19 13:34:14;;;;;;;7.23;4.10;;;;;;;;;;5064203;28;20501;-67
2021/11/19 13:36:44;;;;;;;4.07;3.03;;;;;;;;;;5074239;28;20490;-68
2021/11/19 13:39:14;;;;;;;4.37;3.10;;;;;;;;;;5074283;28;20503;-68
2021/11/19 13:41:48;;;;;;;6.17;2.80;;;;;;;;;;5074268;28;20432;-68
2021/11/19 13:44:34;;;;;;;4.70;2.90;;;;;;;;;;5073703;28;20506;-67
2021/11/19 13:47:16;;;;;;;4.33;2.80;;;;;;;;;;5074123;28;20432;-67
2021/11/19 13:49:46;;;;;;;3.90;2.60;;;;;;;;;;5073682;28;20478;-68
2021/11/19 13:52:19;;;;;;;5.03;3.30;;;;;;;;;;5073770;28;20468;-68
2021/11/19 13:54:49;;;;;;;6.70;3.30;;;;;;;;;;5073555;28;20476;-67
2021/11/19 13:57:26;;;;;;;5.40;3.03;;;;;;;;;;5073830;28;20820;-67
2021/11/19 14:00:15;;;;;;;4.40;3.00;;;;;;;;;;5073727;28;20436;-67
2021/11/19 14:02:52;;;;;;;4.30;3.10;;;;;;;;;;5074007;28;20463;-68
2021/11/19 14:05:24;;;;;;;4.50;4.00;;;;;;;;;;5073980;28;20432;-67
2021/11/19 14:07:55;;;;;;;6.10;4.80;;;;;;;;;;5073746;28;20428;-67
2021/11/19 14:10:26;;;;;;;4.90;3.60;;;;;;;;;;5073792;28;20501;-67
2021/11/19 14:12:55;;;;;;;6.37;4.30;;;;;;;;;;5073465;28;20492;-67
2021/11/19 14:15:26;;;;;;;5.93;4.03;;;;;;;;;;5073692;28;20484;-67
2021/11/19 14:17:58;;;;;;;7.73;5.23;;;;;;;;;;5073761;28;20429;-67
2021/11/19 14:23:22;;;;;;;12.30;7.90;;;;;;;;;;5073114;28;20399;-67
2021/11/19 14:25:52;;;;;;;10.67;6.43;;;;;;;;;;5073144;28;20436;-67
2021/11/19 14:28:25;;;;;;;7.13;4.47;;;;;;;;;;5073189;28;20475;-67
2021/11/19 14:30:52;;;;;;;6.10;3.30;;;;;;;;;;5073586;28;20244;-67
2021/11/19 14:33:32;;;;;;;8.60;3.97;;;;;;;;;;5073168;28;20259;-67
2021/11/19 14:36:02;;;;;;;5.72;3.40;;;;;;;;;;5072895;28;20484;-67